sensor_id;sensor_type;location;lat;lon;timestamp;P1;durP1;ratioP1;P2;durP2;ratioP2
2912;SDS011;1466;48.778;9.166;2022-11-15T00:01:43;15.20;;;7.30;;
2912;SDS011;1466;48.778;9.166;2022-11-15T00:04:08;23.67;;;8.93;;
2912;SDS011;1466;48.778;9.166;2022-11-15T00:06:35;13.63;;;8.05;;
2912;SDS011;1466;48.778;9.166;2022-11-15T00:09:01;11.37;;;5.90;;
2912;SDS011;1466;48.778;9.166;2022-11-15T00:11:27;12.90;;;6.97;;
2912;SDS011;1466;48.778;9.166;2022-11-15T00:13:56;13.93;;;6.17;;
2912;SDS011;1466;48.778;9.166;2022-11-15T00:16:22;17.85;;;10.93;;
2912;SDS011;1466;48.778;9.166;2022-11-15T00:18:49;31.95;;;20.85;;
2912;SDS011;1466;48.778;9.166;2022-11-15T00:21:15;31.38;;;19.17;;
2912;SDS011;1466;48.778;9.166;2022-11-15T00:23:41;19.85;;;9.93;;
2912;SDS011;1466;48.778;9.166;2022-11-15T00:26:07;12.60;;;6.87;;
2912;SDS011;1466;48.778;9.166;2022-11-15T00:28:35;11.25;;;5.25;;
2912;SDS011;1466;48.778;9.166;2022-11-15T00:31:01;12.57;;;5.20;;
2912;SDS011;1466;48.778;9.166;2022-11-15T00:33:28;14.25;;;6.15;;
2912;SDS011;1466;48.778;9.166;2022-11-15T00:35:58;5.33;;;4.13;;
2912;SDS011;1466;48.778;9.166;2022-11-15T00:38:36;20.15;;;7.57;;
2912;SDS011;1466;48.778;9.166;2022-11-15T00:41:04;20.35;;;11.68;;
2912;SDS011;1466;48.778;9.166;2022-11-15T00:43:30;17.45;;;11.45;;
2912;SDS011;1466;48.778;9.166;2022-11-15T00:45:56;33.20;;;18.33;;
2912;SDS011;1466;48.778;9.166;2022-11-15T00:48:22;15.03;;;8.47;;
2912;SDS011;1466;48.778;9.166;2022-11-15T00:50:48;18.67;;;9.10;;
2912;SDS011;1466;48.778;9.166;2022-11-15T00:53:14;10.20;;;5.50;;
2912;SDS011;1466;48.778;9.166;2022-11-15T00:55:40;14.63;;;7.97;;
2912;SDS011;1466;48.778;9.166;2022-11-15T00:58:06;15.30;;;6.80;;
2912;SDS011;1466;48.778;9.166;2022-11-15T01:00:31;10.60;;;5.70;;
2912;SDS011;1466;48.778;9.166;2022-11-15T01:02:57;10.43;;;5.67;;
2912;SDS011;1466;48.778;9.166;2022-11-15T01:05:23;12.43;;;7.07;;
2912;SDS011;1466;48.778;9.166;2022-11-15T01:07:55;9.57;;;5.80;;
2912;SDS011;1466;48.778;9.166;2022-11-15T01:10:21;23.88;;;7.75;;
2912;SDS011;1466;48.778;9.166;2022-11-15T01:12:47;32.17;;;9.60;;
2912;SDS011;1466;48.778;9.166;2022-11-15T01:15:13;19.17;;;8.18;;
2912;SDS011;1466;48.778;9.166;2022-11-15T01:17:39;15.13;;;8.70;;
2912;SDS011;1466;48.778;9.166;2022-11-15T01:20:05;16.30;;;7.77;;
2912;SDS011;1466;48.778;9.166;2022-11-15T01:22:31;14.02;;;7.63;;
2912;SDS011;1466;48.778;9.166;2022-11-15T01:24:56;11.40;;;6.67;;
2912;SDS011;1466;48.778;9.166;2022-11-15T01:27:22;14.23;;;7.47;;
2912;SDS011;1466;48.778;9.166;2022-11-15T01:29:48;14.53;;;6.90;;
2912;SDS011;1466;48.778;9.166;2022-11-15T01:32:13;10.27;;;5.80;;
2912;SDS011;1466;48.778;9.166;2022-11-15T01:34:39;10.87;;;7.00;;
2912;SDS011;1466;48.778;9.166;2022-11-15T01:37:04;13.40;;;6.53;;
2912;SDS011;1466;48.778;9.166;2022-11-15T01:39:30;16.23;;;6.00;;
2912;SDS011;1466;48.778;9.166;2022-11-15T01:41:56;12.03;;;6.33;;
2912;SDS011;1466;48.778;9.166;2022-11-15T01:46:56;8.65;;;5.35;;
2912;SDS011;1466;48.778;9.166;2022-11-15T01:49:24;14.10;;;6.45;;
2912;SDS011;1466;48.778;9.166;2022-11-15T01:51:51;14.25;;;6.97;;
2912;SDS011;1466;48.778;9.166;2022-11-15T01:54:18;15.20;;;7.68;;
2912;SDS011;1466;48.778;9.166;2022-11-15T01:56:47;12.50;;;6.28;;
2912;SDS011;1466;48.778;9.166;2022-11-15T01:59:25;12.95;;;6.18;;
2912;SDS011;1466;48.778;9.166;2022-11-15T02:01:51;13.03;;;6.10;;
2912;SDS011;1466;48.778;9.166;2022-11-15T02:04:26;19.80;;;6.77;;
2912;SDS011;1466;48.778;9.166;2022-11-15T02:06:54;9.65;;;5.97;;
2912;SDS011;1466;48.778;9.166;2022-11-15T02:09:19;12.33;;;6.77;;
2912;SDS011;1466;48.778;9.166;2022-11-15T02:11:45;10.20;;;5.20;;
2912;SDS011;1466;48.778;9.166;2022-11-15T02:14:13;16.58;;;6.97;;
2912;SDS011;1466;48.778;9.166;2022-11-15T02:30:18;16.38;;;7.55;;
2912;SDS011;1466;48.778;9.166;2022-11-15T02:33:00;13.23;;;5.80;;
2912;SDS011;1466;48.778;9.166;2022-11-15T02:38:31;9.40;;;5.72;;
2912;SDS011;1466;48.778;9.166;2022-11-15T02:41:09;14.05;;;6.10;;
2912;SDS011;1466;48.778;9.166;2022-11-15T02:43:45;19.42;;;7.15;;
2912;SDS011;1466;48.778;9.166;2022-11-15T02:49:26;9.52;;;5.38;;
2912;SDS011;1466;48.778;9.166;2022-11-15T02:51:56;12.52;;;6.32;;
2912;SDS011;1466;48.778;9.166;2022-11-15T02:54:22;11.40;;;4.90;;
2912;SDS011;1466;48.778;9.166;2022-11-15T02:56:49;10.90;;;5.53;;
2912;SDS011;1466;48.778;9.166;2022-11-15T03:02:15;11.10;;;5.38;;
2912;SDS011;1466;48.778;9.166;2022-11-15T03:04:53;13.57;;;5.97;;
2912;SDS011;1466;48.778;9.166;2022-11-15T03:07:28;7.20;;;4.32;;
2912;SDS011;1466;48.778;9.166;2022-11-15T03:13:09;9.40;;;4.63;;
2912;SDS011;1466;48.778;9.166;2022-11-15T03:15:57;10.07;;;4.75;;
2912;SDS011;1466;48.778;9.166;2022-11-15T03:18:35;10.15;;;5.25;;
2912;SDS011;1466;48.778;9.166;2022-11-15T03:21:05;8.40;;;4.47;;
2912;SDS011;1466;48.778;9.166;2022-11-15T03:23:34;25.42;;;6.97;;
2912;SDS011;1466;48.778;9.166;2022-11-15T03:26:03;9.52;;;5.07;;
2912;SDS011;1466;48.778;9.166;2022-11-15T03:28:50;10.13;;;5.10;;
2912;SDS011;1466;48.778;9.166;2022-11-15T03:31:19;10.32;;;4.97;;
2912;SDS011;1466;48.778;9.166;2022-11-15T03:34:11;12.20;;;5.15;;
2912;SDS011;1466;48.778;9.166;2022-11-15T03:36:49;9.25;;;5.20;;
2912;SDS011;1466;48.778;9.166;2022-11-15T03:39:15;11.43;;;5.68;;
2912;SDS011;1466;48.778;9.166;2022-11-15T03:49:59;9.57;;;4.85;;
2912;SDS011;1466;48.778;9.166;2022-11-15T03:52:35;8.50;;;5.47;;
2912;SDS011;1466;48.778;9.166;2022-11-15T03:55:02;7.70;;;5.03;;
2912;SDS011;1466;48.778;9.166;2022-11-15T03:57:30;8.60;;;5.25;;
2912;SDS011;1466;48.778;9.166;2022-11-15T03:59:55;15.07;;;5.10;;
2912;SDS011;1466;48.778;9.166;2022-11-15T04:02:21;8.73;;;5.07;;
2912;SDS011;1466;48.778;9.166;2022-11-15T04:04:46;7.97;;;4.93;;
2912;SDS011;1466;48.778;9.166;2022-11-15T04:07:12;12.17;;;5.37;;
2912;SDS011;1466;48.778;9.166;2022-11-15T04:09:38;9.30;;;5.53;;
2912;SDS011;1466;48.778;9.166;2022-11-15T04:12:23;10.63;;;5.22;;
2912;SDS011;1466;48.778;9.166;2022-11-15T04:14:56;10.30;;;5.15;;
2912;SDS011;1466;48.778;9.166;2022-11-15T04:17:48;18.00;;;6.40;;
2912;SDS011;1466;48.778;9.166;2022-11-15T04:20:16;19.35;;;6.88;;
2912;SDS011;1466;48.778;9.166;2022-11-15T04:23:02;11.00;;;4.60;;
2912;SDS011;1466;48.778;9.166;2022-11-15T04:25:49;8.80;;;4.90;;
2912;SDS011;1466;48.778;9.166;2022-11-15T04:28:17;10.98;;;5.10;;
2912;SDS011;1466;48.778;9.166;2022-11-15T04:30:43;11.90;;;6.22;;
2912;SDS011;1466;48.778;9.166;2022-11-15T04:33:09;12.67;;;5.33;;
2912;SDS011;1466;48.778;9.166;2022-11-15T04:35:34;10.27;;;5.33;;
2912;SDS011;1466;48.778;9.166;2022-11-15T04:38:00;8.33;;;4.67;;
2912;SDS011;1466;48.778;9.166;2022-11-15T04:40:27;12.73;;;5.68;;
2912;SDS011;1466;48.778;9.166;2022-11-15T04:42:53;10.20;;;5.20;;
2912;SDS011;1466;48.778;9.166;2022-11-15T04:45:19;9.17;;;5.63;;
2912;SDS011;1466;48.778;9.166;2022-11-15T04:47:44;8.87;;;5.27;;
2912;SDS011;1466;48.778;9.166;2022-11-15T04:50:11;15.45;;;5.40;;
2912;SDS011;1466;48.778;9.166;2022-11-15T04:52:41;7.70;;;5.32;;
2912;SDS011;1466;48.778;9.166;2022-11-15T04:55:08;12.30;;;5.32;;
2912;SDS011;1466;48.778;9.166;2022-11-15T04:57:37;20.73;;;5.82;;
2912;SDS011;1466;48.778;9.166;2022-11-15T05:00:07;9.32;;;4.43;;
2912;SDS011;1466;48.778;9.166;2022-11-15T05:02:34;12.10;;;5.60;;
2912;SDS011;1466;48.778;9.166;2022-11-15T05:05:19;11.30;;;6.18;;
2912;SDS011;1466;48.778;9.166;2022-11-15T05:07:44;12.87;;;6.27;;
2912;SDS011;1466;48.778;9.166;2022-11-15T05:10:10;10.03;;;5.47;;
2912;SDS011;1466;48.778;9.166;2022-11-15T05:12:36;12.63;;;5.37;;
2912;SDS011;1466;48.778;9.166;2022-11-15T05:15:02;14.33;;;5.57;;
2912;SDS011;1466;48.778;9.166;2022-11-15T05:17:27;14.97;;;5.70;;
2912;SDS011;1466;48.778;9.166;2022-11-15T05:19:53;9.60;;;5.60;;
2912;SDS011;1466;48.778;9.166;2022-11-15T05:22:19;10.20;;;5.40;;
2912;SDS011;1466;48.778;9.166;2022-11-15T05:24:45;14.50;;;5.65;;
2912;SDS011;1466;48.778;9.166;2022-11-15T05:27:10;19.43;;;5.70;;
2912;SDS011;1466;48.778;9.166;2022-11-15T05:29:36;12.70;;;5.97;;
2912;SDS011;1466;48.778;9.166;2022-11-15T05:32:03;15.67;;;7.63;;
2912;SDS011;1466;48.778;9.166;2022-11-15T05:34:31;14.00;;;6.40;;
2912;SDS011;1466;48.778;9.166;2022-11-15T05:36:57;16.35;;;6.35;;
2912;SDS011;1466;48.778;9.166;2022-11-15T05:39:23;12.88;;;6.20;;
2912;SDS011;1466;48.778;9.166;2022-11-15T05:41:52;8.80;;;5.63;;
2912;SDS011;1466;48.778;9.166;2022-11-15T05:44:21;8.77;;;5.38;;
2912;SDS011;1466;48.778;9.166;2022-11-15T05:46:48;13.90;;;6.57;;
2912;SDS011;1466;48.778;9.166;2022-11-15T05:49:18;16.38;;;6.60;;
2912;SDS011;1466;48.778;9.166;2022-11-15T05:51:46;12.00;;;5.88;;
2912;SDS011;1466;48.778;9.166;2022-11-15T05:54:13;15.43;;;6.05;;
2912;SDS011;1466;48.778;9.166;2022-11-15T05:56:40;17.63;;;6.53;;
2912;SDS011;1466;48.778;9.166;2022-11-15T05:59:07;15.63;;;6.13;;
2912;SDS011;1466;48.778;9.166;2022-11-15T06:01:34;9.35;;;4.82;;
2912;SDS011;1466;48.778;9.166;2022-11-15T06:04:00;15.60;;;6.00;;
2912;SDS011;1466;48.778;9.166;2022-11-15T06:06:27;16.60;;;6.57;;
2912;SDS011;1466;48.778;9.166;2022-11-15T06:08:53;16.35;;;7.20;;
2912;SDS011;1466;48.778;9.166;2022-11-15T06:11:19;9.07;;;5.20;;
2912;SDS011;1466;48.778;9.166;2022-11-15T06:13:44;17.63;;;6.40;;
2912;SDS011;1466;48.778;9.166;2022-11-15T06:16:10;13.10;;;6.50;;
2912;SDS011;1466;48.778;9.166;2022-11-15T06:18:35;11.03;;;5.00;;
2912;SDS011;1466;48.778;9.166;2022-11-15T06:21:01;14.13;;;6.03;;
2912;SDS011;1466;48.778;9.166;2022-11-15T06:23:27;13.20;;;5.60;;
2912;SDS011;1466;48.778;9.166;2022-11-15T06:25:57;11.77;;;6.40;;
2912;SDS011;1466;48.778;9.166;2022-11-15T06:28:23;16.58;;;6.35;;
2912;SDS011;1466;48.778;9.166;2022-11-15T06:30:49;14.43;;;6.23;;
2912;SDS011;1466;48.778;9.166;2022-11-15T06:33:15;17.83;;;6.87;;
2912;SDS011;1466;48.778;9.166;2022-11-15T06:35:40;10.90;;;5.83;;
2912;SDS011;1466;48.778;9.166;2022-11-15T06:38:07;15.37;;;6.67;;
2912;SDS011;1466;48.778;9.166;2022-11-15T06:40:34;15.95;;;6.18;;
2912;SDS011;1466;48.778;9.166;2022-11-15T06:43:01;32.90;;;10.05;;
2912;SDS011;1466;48.778;9.166;2022-11-15T06:45:27;18.83;;;6.82;;
2912;SDS011;1466;48.778;9.166;2022-11-15T06:47:53;14.57;;;6.30;;
2912;SDS011;1466;48.778;9.166;2022-11-15T06:50:18;11.10;;;6.00;;
2912;SDS011;1466;48.778;9.166;2022-11-15T06:52:44;17.03;;;5.73;;
2912;SDS011;1466;48.778;9.166;2022-11-15T06:55:10;13.00;;;6.47;;
2912;SDS011;1466;48.778;9.166;2022-11-15T06:57:36;14.03;;;6.90;;
2912;SDS011;1466;48.778;9.166;2022-11-15T07:00:05;15.32;;;6.90;;
2912;SDS011;1466;48.778;9.166;2022-11-15T07:02:31;20.23;;;7.75;;
2912;SDS011;1466;48.778;9.166;2022-11-15T07:04:57;14.07;;;6.63;;
2912;SDS011;1466;48.778;9.166;2022-11-15T07:07:22;14.93;;;7.63;;
2912;SDS011;1466;48.778;9.166;2022-11-15T07:09:48;11.97;;;6.93;;
2912;SDS011;1466;48.778;9.166;2022-11-15T07:12:13;16.40;;;7.53;;
2912;SDS011;1466;48.778;9.166;2022-11-15T07:14:39;14.53;;;7.30;;
2912;SDS011;1466;48.778;9.166;2022-11-15T07:17:04;23.30;;;8.60;;
2912;SDS011;1466;48.778;9.166;2022-11-15T07:19:30;24.27;;;8.50;;
2912;SDS011;1466;48.778;9.166;2022-11-15T07:21:56;14.40;;;6.70;;
2912;SDS011;1466;48.778;9.166;2022-11-15T07:24:22;18.63;;;6.93;;
2912;SDS011;1466;48.778;9.166;2022-11-15T07:26:47;24.77;;;7.00;;
2912;SDS011;1466;48.778;9.166;2022-11-15T07:29:13;26.43;;;8.90;;
2912;SDS011;1466;48.778;9.166;2022-11-15T07:31:38;12.20;;;6.43;;
2912;SDS011;1466;48.778;9.166;2022-11-15T07:34:04;21.97;;;8.40;;
2912;SDS011;1466;48.778;9.166;2022-11-15T07:36:30;14.37;;;6.47;;
2912;SDS011;1466;48.778;9.166;2022-11-15T07:38:55;14.90;;;6.67;;
2912;SDS011;1466;48.778;9.166;2022-11-15T07:41:21;25.80;;;8.27;;
2912;SDS011;1466;48.778;9.166;2022-11-15T07:43:46;19.87;;;7.27;;
2912;SDS011;1466;48.778;9.166;2022-11-15T07:46:15;23.67;;;8.27;;
2912;SDS011;1466;48.778;9.166;2022-11-15T07:48:41;12.40;;;6.13;;
2912;SDS011;1466;48.778;9.166;2022-11-15T07:51:06;11.57;;;5.47;;
2912;SDS011;1466;48.778;9.166;2022-11-15T07:53:35;14.45;;;6.30;;
2912;SDS011;1466;48.778;9.166;2022-11-15T07:56:00;10.07;;;6.17;;
2912;SDS011;1466;48.778;9.166;2022-11-15T07:58:26;11.63;;;5.90;;
2912;SDS011;1466;48.778;9.166;2022-11-15T08:00:52;13.67;;;5.97;;
2912;SDS011;1466;48.778;9.166;2022-11-15T08:03:17;16.07;;;6.87;;
2912;SDS011;1466;48.778;9.166;2022-11-15T08:05:43;15.57;;;6.70;;
2912;SDS011;1466;48.778;9.166;2022-11-15T08:08:15;11.60;;;6.13;;
2912;SDS011;1466;48.778;9.166;2022-11-15T08:10:41;12.80;;;5.80;;
2912;SDS011;1466;48.778;9.166;2022-11-15T08:13:08;14.80;;;5.67;;
2912;SDS011;1466;48.778;9.166;2022-11-15T08:15:35;18.83;;;6.72;;
2912;SDS011;1466;48.778;9.166;2022-11-15T08:18:03;23.35;;;8.30;;
2912;SDS011;1466;48.778;9.166;2022-11-15T08:20:33;25.23;;;7.85;;
2912;SDS011;1466;48.778;9.166;2022-11-15T08:23:00;12.63;;;5.73;;
2912;SDS011;1466;48.778;9.166;2022-11-15T08:25:28;12.88;;;6.05;;
2912;SDS011;1466;48.778;9.166;2022-11-15T08:27:55;22.20;;;8.10;;
2912;SDS011;1466;48.778;9.166;2022-11-15T08:30:22;14.45;;;6.43;;
2912;SDS011;1466;48.778;9.166;2022-11-15T08:32:49;23.77;;;6.60;;
2912;SDS011;1466;48.778;9.166;2022-11-15T08:35:15;27.75;;;6.88;;
2912;SDS011;1466;48.778;9.166;2022-11-15T08:37:41;11.40;;;5.90;;
2912;SDS011;1466;48.778;9.166;2022-11-15T08:40:07;18.60;;;6.70;;
2912;SDS011;1466;48.778;9.166;2022-11-15T08:42:34;11.32;;;5.80;;
2912;SDS011;1466;48.778;9.166;2022-11-15T08:45:00;24.40;;;8.93;;
2912;SDS011;1466;48.778;9.166;2022-11-15T08:47:26;12.23;;;5.80;;
2912;SDS011;1466;48.778;9.166;2022-11-15T08:49:52;16.73;;;5.87;;
2912;SDS011;1466;48.778;9.166;2022-11-15T08:52:17;23.50;;;7.97;;
2912;SDS011;1466;48.778;9.166;2022-11-15T08:54:43;13.43;;;5.80;;
2912;SDS011;1466;48.778;9.166;2022-11-15T08:57:09;19.10;;;7.10;;
2912;SDS011;1466;48.778;9.166;2022-11-15T08:59:35;13.37;;;6.77;;
2912;SDS011;1466;48.778;9.166;2022-11-15T09:02:01;28.10;;;8.68;;
2912;SDS011;1466;48.778;9.166;2022-11-15T09:04:27;21.80;;;8.17;;
2912;SDS011;1466;48.778;9.166;2022-11-15T09:06:53;15.30;;;7.33;;
2912;SDS011;1466;48.778;9.166;2022-11-15T09:09:18;28.40;;;10.43;;
2912;SDS011;1466;48.778;9.166;2022-11-15T09:11:44;24.30;;;8.10;;
2912;SDS011;1466;48.778;9.166;2022-11-15T09:14:13;19.97;;;9.03;;
2912;SDS011;1466;48.778;9.166;2022-11-15T09:16:39;24.92;;;9.43;;
2912;SDS011;1466;48.778;9.166;2022-11-15T09:19:05;28.40;;;9.70;;
2912;SDS011;1466;48.778;9.166;2022-11-15T09:21:31;27.42;;;8.35;;
2912;SDS011;1466;48.778;9.166;2022-11-15T09:23:57;19.10;;;8.50;;
2912;SDS011;1466;48.778;9.166;2022-11-15T09:26:23;26.35;;;9.80;;
2912;SDS011;1466;48.778;9.166;2022-11-15T09:28:49;23.47;;;8.90;;
2912;SDS011;1466;48.778;9.166;2022-11-15T09:31:15;15.98;;;7.47;;
2912;SDS011;1466;48.778;9.166;2022-11-15T09:33:42;19.90;;;8.40;;
2912;SDS011;1466;48.778;9.166;2022-11-15T09:36:08;20.30;;;8.45;;
2912;SDS011;1466;48.778;9.166;2022-11-15T09:38:35;22.87;;;8.20;;
2912;SDS011;1466;48.778;9.166;2022-11-15T09:46:44;18.08;;;7.40;;
2912;SDS011;1466;48.778;9.166;2022-11-15T09:49:26;22.60;;;9.25;;
2912;SDS011;1466;48.778;9.166;2022-11-15T09:51:53;26.80;;;10.30;;
2912;SDS011;1466;48.778;9.166;2022-11-15T09:54:35;16.85;;;8.02;;
2912;SDS011;1466;48.778;9.166;2022-11-15T09:59:58;28.42;;;8.70;;
2912;SDS011;1466;48.778;9.166;2022-11-15T10:02:51;27.08;;;9.07;;
2912;SDS011;1466;48.778;9.166;2022-11-15T10:05:39;12.98;;;6.38;;
2912;SDS011;1466;48.778;9.166;2022-11-15T10:08:20;28.02;;;8.95;;
2912;SDS011;1466;48.778;9.166;2022-11-15T10:11:07;13.75;;;5.47;;
2912;SDS011;1466;48.778;9.166;2022-11-15T10:13:36;10.90;;;4.97;;
2912;SDS011;1466;48.778;9.166;2022-11-15T10:16:13;37.42;;;9.30;;
2912;SDS011;1466;48.778;9.166;2022-11-15T10:21:50;7.95;;;5.07;;
2912;SDS011;1466;48.778;9.166;2022-11-15T10:24:45;14.10;;;5.90;;
2912;SDS011;1466;48.778;9.166;2022-11-15T10:27:17;9.15;;;4.90;;
2912;SDS011;1466;48.778;9.166;2022-11-15T10:29:47;13.10;;;4.70;;
2912;SDS011;1466;48.778;9.166;2022-11-15T10:32:16;12.40;;;4.80;;
2912;SDS011;1466;48.778;9.166;2022-11-15T10:34:43;13.52;;;4.82;;
2912;SDS011;1466;48.778;9.166;2022-11-15T10:37:09;10.43;;;5.30;;
2912;SDS011;1466;48.778;9.166;2022-11-15T10:39:35;11.70;;;5.40;;
2912;SDS011;1466;48.778;9.166;2022-11-15T10:44:51;14.75;;;7.45;;
2912;SDS011;1466;48.778;9.166;2022-11-15T10:47:27;23.63;;;7.27;;
2912;SDS011;1466;48.778;9.166;2022-11-15T10:49:59;18.35;;;6.25;;
2912;SDS011;1466;48.778;9.166;2022-11-15T10:52:49;27.20;;;6.97;;
2912;SDS011;1466;48.778;9.166;2022-11-15T10:57:47;21.60;;;7.60;;
2912;SDS011;1466;48.778;9.166;2022-11-15T11:08:02;18.17;;;7.40;;
2912;SDS011;1466;48.778;9.166;2022-11-15T11:10:51;15.65;;;7.05;;
2912;SDS011;1466;48.778;9.166;2022-11-15T11:13:25;17.48;;;7.60;;
2912;SDS011;1466;48.778;9.166;2022-11-15T11:16:39;17.27;;;7.53;;
2912;SDS011;1466;48.778;9.166;2022-11-15T11:18:45;15.60;;;6.65;;
2912;SDS011;1466;48.778;9.166;2022-11-15T11:21:39;16.58;;;7.00;;
2912;SDS011;1466;48.778;9.166;2022-11-15T11:24:14;16.70;;;6.60;;
2912;SDS011;1466;48.778;9.166;2022-11-15T11:30:23;16.58;;;6.70;;
2912;SDS011;1466;48.778;9.166;2022-11-15T11:42:57;11.82;;;5.95;;
2912;SDS011;1466;48.778;9.166;2022-11-15T11:48:12;15.27;;;6.03;;
2912;SDS011;1466;48.778;9.166;2022-11-15T11:50:44;10.18;;;4.85;;
2912;SDS011;1466;48.778;9.166;2022-11-15T11:55:42;24.58;;;8.23;;
2912;SDS011;1466;48.778;9.166;2022-11-15T12:00:53;19.77;;;7.60;;
2912;SDS011;1466;48.778;9.166;2022-11-15T12:06:06;23.98;;;7.88;;
2912;SDS011;1466;48.778;9.166;2022-11-15T12:08:59;17.33;;;7.47;;
2912;SDS011;1466;48.778;9.166;2022-11-15T12:11:43;16.38;;;7.30;;
2912;SDS011;1466;48.778;9.166;2022-11-15T12:14:32;17.27;;;7.03;;
2912;SDS011;1466;48.778;9.166;2022-11-15T12:17:10;22.73;;;8.02;;
2912;SDS011;1466;48.778;9.166;2022-11-15T12:19:37;14.48;;;7.15;;
2912;SDS011;1466;48.778;9.166;2022-11-15T12:22:10;18.85;;;6.32;;
2912;SDS011;1466;48.778;9.166;2022-11-15T12:24:54;12.70;;;6.68;;
2912;SDS011;1466;48.778;9.166;2022-11-15T12:30:12;14.32;;;7.18;;
2912;SDS011;1466;48.778;9.166;2022-11-15T12:32:49;11.52;;;6.03;;
2912;SDS011;1466;48.778;9.166;2022-11-15T12:35:24;20.42;;;7.25;;
2912;SDS011;1466;48.778;9.166;2022-11-15T12:37:58;17.40;;;7.45;;
2912;SDS011;1466;48.778;9.166;2022-11-15T12:40:25;23.35;;;7.80;;
2912;SDS011;1466;48.778;9.166;2022-11-15T12:43:33;14.30;;;6.60;;
2912;SDS011;1466;48.778;9.166;2022-11-15T12:46:10;9.52;;;4.95;;
2912;SDS011;1466;48.778;9.166;2022-11-15T13:10:51;27.73;;;7.43;;
2912;SDS011;1466;48.778;9.166;2022-11-15T13:13:06;9.98;;;4.80;;
2912;SDS011;1466;48.778;9.166;2022-11-15T13:15:34;11.73;;;5.90;;
2912;SDS011;1466;48.778;9.166;2022-11-15T13:18:23;16.65;;;6.40;;
2912;SDS011;1466;48.778;9.166;2022-11-15T13:20:54;11.80;;;5.10;;
2912;SDS011;1466;48.778;9.166;2022-11-15T13:23:20;11.33;;;5.03;;
2912;SDS011;1466;48.778;9.166;2022-11-15T13:28:31;10.93;;;4.68;;
2912;SDS011;1466;48.778;9.166;2022-11-15T13:31:24;22.42;;;7.38;;
2912;SDS011;1466;48.778;9.166;2022-11-15T13:36:58;15.88;;;7.43;;
2912;SDS011;1466;48.778;9.166;2022-11-15T13:41:57;12.38;;;5.70;;
2912;SDS011;1466;48.778;9.166;2022-11-15T13:47:35;12.70;;;6.30;;
2912;SDS011;1466;48.778;9.166;2022-11-15T13:49:40;10.63;;;5.07;;
2912;SDS011;1466;48.778;9.166;2022-11-15T13:52:10;9.82;;;5.28;;
2912;SDS011;1466;48.778;9.166;2022-11-15T13:54:40;13.45;;;5.93;;
2912;SDS011;1466;48.778;9.166;2022-11-15T13:59:50;12.80;;;5.60;;
2912;SDS011;1466;48.778;9.166;2022-11-15T14:02:25;13.20;;;5.38;;
2912;SDS011;1466;48.778;9.166;2022-11-15T14:07:27;9.48;;;5.50;;
2912;SDS011;1466;48.778;9.166;2022-11-15T14:09:53;9.60;;;5.35;;
2912;SDS011;1466;48.778;9.166;2022-11-15T14:12:29;15.20;;;6.18;;
2912;SDS011;1466;48.778;9.166;2022-11-15T14:15:19;10.55;;;5.18;;
2912;SDS011;1466;48.778;9.166;2022-11-15T14:17:57;9.57;;;5.85;;
2912;SDS011;1466;48.778;9.166;2022-11-15T14:23:18;14.98;;;6.15;;
2912;SDS011;1466;48.778;9.166;2022-11-15T14:25:52;17.92;;;7.30;;
2912;SDS011;1466;48.778;9.166;2022-11-15T14:30:48;20.50;;;7.97;;
2912;SDS011;1466;48.778;9.166;2022-11-15T14:35:45;18.00;;;7.38;;
2912;SDS011;1466;48.778;9.166;2022-11-15T14:38:10;23.13;;;7.30;;
2912;SDS011;1466;48.778;9.166;2022-11-15T14:40:41;16.10;;;6.73;;
2912;SDS011;1466;48.778;9.166;2022-11-15T14:43:08;11.05;;;6.22;;
2912;SDS011;1466;48.778;9.166;2022-11-15T14:45:36;21.23;;;8.15;;
2912;SDS011;1466;48.778;9.166;2022-11-15T14:48:01;33.70;;;9.80;;
2912;SDS011;1466;48.778;9.166;2022-11-15T14:50:27;17.57;;;6.93;;
2912;SDS011;1466;48.778;9.166;2022-11-15T14:52:53;13.33;;;6.03;;
2912;SDS011;1466;48.778;9.166;2022-11-15T14:55:20;9.77;;;5.77;;
2912;SDS011;1466;48.778;9.166;2022-11-15T14:57:48;17.17;;;6.85;;
2912;SDS011;1466;48.778;9.166;2022-11-15T15:00:14;12.20;;;6.07;;
2912;SDS011;1466;48.778;9.166;2022-11-15T15:02:41;12.23;;;6.47;;
2912;SDS011;1466;48.778;9.166;2022-11-15T15:07:47;10.40;;;6.03;;
2912;SDS011;1466;48.778;9.166;2022-11-15T15:10:14;22.55;;;7.90;;
2912;SDS011;1466;48.778;9.166;2022-11-15T15:12:40;28.40;;;8.95;;
2912;SDS011;1466;48.778;9.166;2022-11-15T15:15:08;13.07;;;6.97;;
2912;SDS011;1466;48.778;9.166;2022-11-15T15:17:39;17.55;;;7.40;;
2912;SDS011;1466;48.778;9.166;2022-11-15T15:20:04;12.00;;;6.40;;
2912;SDS011;1466;48.778;9.166;2022-11-15T15:22:30;13.63;;;6.97;;
2912;SDS011;1466;48.778;9.166;2022-11-15T15:24:56;13.07;;;6.75;;
2912;SDS011;1466;48.778;9.166;2022-11-15T15:27:22;11.00;;;6.53;;
2912;SDS011;1466;48.778;9.166;2022-11-15T15:29:47;15.40;;;6.60;;
2912;SDS011;1466;48.778;9.166;2022-11-15T15:32:13;18.70;;;7.13;;
2912;SDS011;1466;48.778;9.166;2022-11-15T15:34:39;34.97;;;8.70;;
2912;SDS011;1466;48.778;9.166;2022-11-15T15:39:44;15.60;;;6.60;;
2912;SDS011;1466;48.778;9.166;2022-11-15T15:42:09;24.97;;;8.43;;
2912;SDS011;1466;48.778;9.166;2022-11-15T15:44:35;16.60;;;7.90;;
2912;SDS011;1466;48.778;9.166;2022-11-15T15:47:00;15.30;;;7.13;;
2912;SDS011;1466;48.778;9.166;2022-11-15T15:49:26;15.57;;;8.00;;
2912;SDS011;1466;48.778;9.166;2022-11-15T15:51:51;15.50;;;7.90;;
2912;SDS011;1466;48.778;9.166;2022-11-15T15:54:17;17.43;;;7.27;;
2912;SDS011;1466;48.778;9.166;2022-11-15T15:56:42;19.73;;;8.13;;
2912;SDS011;1466;48.778;9.166;2022-11-15T15:59:08;19.23;;;9.13;;
2912;SDS011;1466;48.778;9.166;2022-11-15T16:01:34;23.40;;;10.10;;
2912;SDS011;1466;48.778;9.166;2022-11-15T16:03:59;23.97;;;8.60;;
2912;SDS011;1466;48.778;9.166;2022-11-15T16:08:58;18.10;;;8.20;;
2912;SDS011;1466;48.778;9.166;2022-11-15T16:11:24;18.80;;;8.50;;
2912;SDS011;1466;48.778;9.166;2022-11-15T16:13:49;32.97;;;11.17;;
2912;SDS011;1466;48.778;9.166;2022-11-15T16:16:21;14.53;;;8.60;;
2912;SDS011;1466;48.778;9.166;2022-11-15T16:18:47;14.43;;;7.30;;
2912;SDS011;1466;48.778;9.166;2022-11-15T16:21:12;21.47;;;8.50;;
2912;SDS011;1466;48.778;9.166;2022-11-15T16:23:38;12.83;;;6.93;;
2912;SDS011;1466;48.778;9.166;2022-11-15T16:26:09;16.37;;;7.97;;
2912;SDS011;1466;48.778;9.166;2022-11-15T16:28:44;14.18;;;8.02;;
2912;SDS011;1466;48.778;9.166;2022-11-15T16:31:10;15.50;;;7.53;;
2912;SDS011;1466;48.778;9.166;2022-11-15T16:33:37;23.65;;;8.70;;
2912;SDS011;1466;48.778;9.166;2022-11-15T16:36:03;27.25;;;9.35;;
2912;SDS011;1466;48.778;9.166;2022-11-15T16:38:31;20.73;;;8.05;;
2912;SDS011;1466;48.778;9.166;2022-11-15T16:40:57;12.57;;;7.32;;
2912;SDS011;1466;48.778;9.166;2022-11-15T16:43:22;26.90;;;8.07;;
2912;SDS011;1466;48.778;9.166;2022-11-15T16:45:49;14.43;;;7.60;;
2912;SDS011;1466;48.778;9.166;2022-11-15T16:48:20;17.30;;;7.40;;
2912;SDS011;1466;48.778;9.166;2022-11-15T16:50:47;19.05;;;8.27;;
2912;SDS011;1466;48.778;9.166;2022-11-15T16:53:12;15.88;;;7.63;;
2912;SDS011;1466;48.778;9.166;2022-11-15T16:55:38;19.20;;;7.70;;
2912;SDS011;1466;48.778;9.166;2022-11-15T16:58:03;18.90;;;8.20;;
2912;SDS011;1466;48.778;9.166;2022-11-15T17:00:29;18.50;;;7.67;;
2912;SDS011;1466;48.778;9.166;2022-11-15T17:02:55;14.20;;;7.40;;
2912;SDS011;1466;48.778;9.166;2022-11-15T17:05:22;16.92;;;7.20;;
2912;SDS011;1466;48.778;9.166;2022-11-15T17:07:49;15.35;;;7.93;;
2912;SDS011;1466;48.778;9.166;2022-11-15T17:10:18;25.48;;;8.68;;
2912;SDS011;1466;48.778;9.166;2022-11-15T17:12:45;19.02;;;8.55;;
2912;SDS011;1466;48.778;9.166;2022-11-15T17:15:11;14.03;;;7.73;;
2912;SDS011;1466;48.778;9.166;2022-11-15T17:17:37;19.15;;;7.90;;
2912;SDS011;1466;48.778;9.166;2022-11-15T17:20:04;15.80;;;8.48;;
2912;SDS011;1466;48.778;9.166;2022-11-15T17:22:34;20.00;;;8.00;;
2912;SDS011;1466;48.778;9.166;2022-11-15T17:25:00;12.82;;;7.93;;
2912;SDS011;1466;48.778;9.166;2022-11-15T17:27:26;18.20;;;8.60;;
2912;SDS011;1466;48.778;9.166;2022-11-15T17:29:51;20.10;;;8.70;;
2912;SDS011;1466;48.778;9.166;2022-11-15T17:32:17;14.20;;;8.10;;
2912;SDS011;1466;48.778;9.166;2022-11-15T17:34:42;15.47;;;7.53;;
2912;SDS011;1466;48.778;9.166;2022-11-15T17:37:08;19.03;;;7.87;;